Latest Weather Observations for Roxby Downs

IDS60801

Issued at 9:05 pm CST Tuesday 16 September 2014 (issued every 30 minutes, with the page automatically refreshed every 10 minutes)

About weather observations | Map of weather stations | Latest weather observations for SA | Other Formats
Station Details ID: 016096 Name: OLYMPIC DAM AERODROME Lat: -30.48 Lon: 136.88 Height: 98.5 m
Data from the previous 72 hours. | See also: Recent months at Roxby Downs
Date/Time
CST
Temp
°C
App
Temp
°C
Dew
Point
Rel
Hum
%
Delta-T
°C
Wind Press
QNH
hPa
Press
MSL
hPa
Rain
since 9 am
mm
Dir
 
Spd
km/h
Gust
km/h
Spd
kts
Gust
kts
16/09:00pm 12.5 9.0 -2.5 35 5.9 S 6 6 3 3 1019.9 1019.7 0.0
16/08:30pm 14.5 11.1 -0.4 36 6.2 SSW 7 9 4 5 1019.8 1019.6 0.0
16/08:00pm 16.2 12.7 1.1 36 6.6 SSW 9 9 5 5 1019.4 1019.2 0.0
16/07:30pm 17.5 13.3 1.5 34 7.1 SSW 13 15 7 8 1019.1 1018.9 0.0
16/07:00pm 18.4 13.8 1.4 32 7.7 SSW 15 20 8 11 1018.6 1018.4 0.0
16/06:30pm 18.9 13.7 0.0 28 8.3 SSW 17 20 9 11 1018.2 1018.0 0.0
16/06:00pm 19.7 12.7 -0.3 26 8.8 SSW 26 33 14 18 1017.8 1017.6 0.0
16/05:30pm 20.9 15.1 -0.4 24 9.4 SW 20 28 11 15 1017.6 1017.4 0.0
16/05:00pm 21.4 16.1 -0.6 23 9.8 SW 17 24 9 13 1017.2 1017.0 0.0
16/04:30pm 21.6 15.9 -1.0 22 10.0 WSW 19 26 10 14 1016.9 1016.7 0.0
16/04:00pm 22.0 16.3 -0.7 22 10.1 SSW 19 30 10 16 1017.0 1016.8 0.0
16/03:30pm 21.7 16.4 -0.3 23 9.8 W 17 24 9 13 1016.9 1016.7 0.0
16/03:00pm 21.7 16.1 -0.3 23 9.8 SW 19 28 10 15 1017.4 1017.2 0.0
16/02:30pm 22.1 16.6 0.6 24 9.8 SSW 19 33 10 18 1017.4 1017.2 0.0
16/02:00pm 20.7 16.5 1.6 28 8.8 W 13 17 7 9 1017.9 1017.7 0.0
16/01:30pm 21.0 16.1 1.8 28 8.9 SSW 17 28 9 15 1018.5 1018.3 0.0
16/01:00pm 20.4 16.4 2.7 31 8.3 SSW 13 24 7 13 1019.1 1018.9 0.0
16/12:30pm 19.8 16.0 3.9 35 7.6 WSW 13 20 7 11 1019.5 1019.3 0.0
16/12:00pm 19.1 16.0 3.7 36 7.3 SSW 9 20 5 11 1019.9 1019.7 0.0
16/11:30am 18.2 15.1 5.4 43 6.2 SSW 11 19 6 10 1020.3 1020.1 0.0
16/11:00am 17.8 14.8 6.0 46 5.8 S 11 20 6 11 1020.7 1020.5 0.0
16/10:30am 17.2 13.5 6.4 49 5.3 S 15 22 8 12 1021.0 1020.8 0.0
16/10:00am 16.7 12.4 6.8 52 4.9 SSE 19 26 10 14 1021.2 1021.0 0.0
16/09:30am 16.0 12.6 7.5 57 4.2 SSE 15 22 8 12 1021.6 1021.4 0.0
16/09:00am 14.8 11.2 8.5 66 3.2 S 17 20 9 11 1021.6 1021.4 0.0
16/08:30am 14.0 10.5 8.6 70 2.7 S 17 24 9 13 1021.6 1021.4 0.0
16/08:00am 12.6 8.6 8.3 75 2.1 S 19 24 10 13 1021.3 1021.1 0.0
16/07:30am 10.9 7.9 7.8 81 1.5 SSW 13 17 7 9 1020.9 1020.7 0.0
16/07:00am 8.7 7.2 7.0 89 0.8 SSE 4 7 2 4 1020.6 1020.4 0.0
16/06:30am 7.5 5.2 5.8 89 0.8 W 7 7 4 4 1020.7 1020.5 0.0
16/06:00am 7.1 4.2 4.9 86 1.0 WSW 9 13 5 7 1020.4 1020.2 0.0
16/05:30am 7.5 4.9 4.3 80 1.4 WSW 7 9 4 5 1019.8 1019.6 0.0
16/05:00am 9.7 7.2 6.6 81 1.5 SSW 9 13 5 7 1019.4 1019.2 0.0
16/04:30am 10.1 6.4 6.4 78 1.7 S 15 17 8 9 1018.9 1018.7 0.0
16/04:00am 10.8 7.2 6.9 77 1.9 SSW 15 20 8 11 1019.0 1018.8 0.0
16/03:30am 11.1 7.8 6.6 74 2.1 SSW 13 17 7 9 1019.0 1018.8 0.0
16/03:00am 11.5 7.8 6.2 70 2.5 SSW 15 17 8 9 1019.3 1019.1 0.0
16/02:30am 11.8 8.4 5.9 67 2.8 SW 13 17 7 9 1019.4 1019.2 0.0
16/02:00am 12.6 9.2 6.0 64 3.1 SSW 13 17 7 9 1019.5 1019.3 0.0
16/01:30am 13.1 9.3 5.8 61 3.4 SSW 15 17 8 9 1019.5 1019.3 0.0
16/01:00am 14.0 9.8 5.6 57 4.0 S 17 22 9 12 1019.5 1019.3 0.0
16/12:30am 14.3 10.4 5.4 55 4.2 S 15 20 8 11 1019.5 1019.3 0.0
16/12:00am 15.1 10.2 5.3 52 4.6 S 20 26 11 14 1019.5 1019.3 0.0
 
Date/Time
CST
Temp
°C
App
Temp
°C
Dew
Point
Rel
Hum
%
Delta-T
°C
Wind Press
QNH
hPa
Press
MSL
hPa
Rain
since 9 am
mm
Dir
 
Spd
km/h
Gust
km/h
Spd
kts
Gust
kts
15/11:30pm 15.4 11.0 5.0 50 4.9 S 17 24 9 13 1019.4 1019.2 0.0
15/11:00pm 15.9 11.5 4.6 47 5.3 SSW 17 24 9 13 1019.2 1019.0 0.0
15/10:30pm 16.3 11.8 4.4 45 5.6 SSW 17 24 9 13 1019.1 1018.9 0.0
15/10:00pm 17.1 12.1 4.4 43 6.0 SSW 20 30 11 16 1019.1 1018.9 0.0
15/09:30pm 17.5 12.5 3.8 40 6.4 SSW 19 24 10 13 1019.1 1018.9 0.0
15/09:00pm 18.2 13.0 3.7 38 6.8 SSW 20 26 11 14 1018.8 1018.6 0.0
15/08:30pm 18.4 14.1 3.5 37 7.0 SSW 15 20 8 11 1018.3 1018.1 0.0
15/08:00pm 18.8 14.8 3.0 35 7.4 SSW 13 19 7 10 1018.0 1017.8 0.0
15/07:30pm 20.0 14.8 3.3 33 7.9 SSW 20 28 11 15 1017.6 1017.4 0.0
15/07:00pm 20.6 14.7 3.8 33 8.1 SSW 24 33 13 18 1017.2 1017.0 0.0
15/06:30pm 21.0 14.7 3.7 32 8.3 SSW 26 33 14 18 1016.9 1016.7 0.0
15/06:00pm 21.8 15.9 3.9 31 8.7 SSW 24 39 13 21 1016.6 1016.4 0.0
15/05:30pm 22.5 15.9 4.1 30 9.0 SSW 28 39 15 21 1016.2 1016.0 0.0
15/05:00pm 23.0 15.9 3.5 28 9.5 SSW 30 43 16 23 1016.0 1015.8 0.0
15/04:30pm 23.6 16.7 4.5 29 9.5 SSW 30 50 16 27 1015.7 1015.6 0.0
15/04:28pm 24.0 17.5 4.9 29 9.6 SSW 28 50 15 27 1015.6 1015.5 0.0
15/04:00pm 23.8 16.9 4.7 29 9.6 SSW 30 44 16 24 1015.6 1015.5 0.0
15/03:50pm 24.0 17.4 4.4 28 9.8 SSW 28 46 15 25 1015.6 1015.5 0.0
15/03:30pm 23.8 16.3 4.7 29 9.5 SSW 33 46 18 25 1015.7 1015.6 0.0
15/03:00pm 24.2 17.9 5.5 30 9.5 SW 28 39 15 21 1015.6 1015.5 0.0
15/02:30pm 24.3 17.7 6.1 31 9.4 SW 30 41 16 22 1015.7 1015.6 0.0
15/02:18pm 24.8 18.2 6.1 30 9.7 SW 30 48 16 26 1015.8 1015.7 0.0
15/02:00pm 23.8 16.8 6.1 32 9.1 SSW 32 44 17 24 1016.1 1015.9 0.0
15/01:30pm 23.8 16.9 6.6 33 8.9 SSW 32 41 17 22 1016.4 1016.2 0.0
15/01:00pm 23.4 17.5 7.5 36 8.3 SSW 28 39 15 21 1016.6 1016.4 0.0
15/12:31pm 22.6 16.6 7.2 37 8.0 SSW 28 46 15 25 1016.8 1016.6 0.0
15/12:30pm 22.7 16.8 7.3 37 8.0 SSW 28 37 15 20 1016.8 1016.6 0.0
15/12:00pm 21.6 16.5 7.8 41 7.2 SSW 24 35 13 19 1017.2 1017.0 0.0
15/11:30am 21.5 15.4 8.1 42 7.0 SW 30 43 16 23 1017.5 1017.3 0.0
15/11:00am 20.7 15.0 8.4 45 6.5 SSW 28 39 15 21 1017.7 1017.5 0.0
15/10:30am 20.5 15.0 9.1 48 6.0 SSW 28 41 15 22 1017.9 1017.7 0.0
15/10:00am 19.5 13.0 8.8 50 5.6 SSW 33 46 18 25 1017.9 1017.7 0.0
15/09:30am 18.8 13.0 9.3 54 5.0 SSW 30 43 16 23 1018.1 1017.9 0.0
15/09:00am 18.2 12.4 9.3 56 4.7 SW 30 37 16 20 1017.9 1017.7 0.0
15/08:30am 16.9 12.2 9.1 60 4.0 SW 24 33 13 18 1017.8 1017.6 0.0
15/08:00am 16.1 12.7 9.1 63 3.6 SW 17 24 9 13 1017.5 1017.3 0.0
15/07:30am 14.5 11.7 8.7 68 2.9 SW 13 19 7 10 1017.3 1017.1 0.0
15/07:00am 14.1 11.7 8.7 70 2.7 SW 11 15 6 8 1017.1 1016.9 0.0
15/06:30am 14.2 11.8 8.8 70 2.7 WSW 11 15 6 8 1016.8 1016.6 0.0
15/06:00am 13.8 11.3 8.4 70 2.7 WSW 11 15 6 8 1016.4 1016.2 0.0
15/05:30am 14.1 11.3 8.5 69 2.8 W 13 22 7 12 1016.2 1016.0 0.0
15/05:00am 13.9 9.0 8.5 70 2.7 WSW 24 33 13 18 1016.1 1015.9 0.0
15/04:30am 12.6 8.4 7.5 71 2.5 WSW 19 26 10 14 1015.8 1015.7 0.0
15/04:00am 13.0 10.0 7.5 69 2.7 WSW 13 17 7 9 1015.4 1015.3 0.0
15/03:30am 13.3 10.3 7.5 68 2.8 WSW 13 22 7 12 1015.2 1015.1 0.0
15/03:00am 12.8 10.4 6.8 67 2.9 W 9 13 5 7 1015.4 1015.3 0.0
15/02:30am 13.8 11.4 7.1 64 3.3 WSW 9 11 5 6 1015.6 1015.5 0.0
15/02:00am 15.2 11.0 7.5 60 3.8 SW 19 26 10 14 1015.8 1015.7 0.0
15/01:30am 15.6 11.8 7.4 58 4.1 SW 17 22 9 12 1015.8 1015.7 0.0
15/01:00am 16.3 11.5 7.5 56 4.4 SW 22 30 12 16 1015.8 1015.7 0.0
15/12:30am 17.0 13.3 7.9 55 4.6 SW 17 22 9 12 1016.1 1015.9 0.0
15/12:00am 17.9 12.9 8.2 53 5.0 SW 24 33 13 18 1016.0 1015.8 0.0
 
Date/Time
CST
Temp
°C
App
Temp
°C
Dew
Point
Rel
Hum
%
Delta-T
°C
Wind Press
QNH
hPa
Press
MSL
hPa
Rain
since 9 am
mm
Dir
 
Spd
km/h
Gust
km/h
Spd
kts
Gust
kts
14/11:30pm 19.0 14.1 8.6 51 5.4 SW 24 35 13 19 1015.4 1015.3 0.0
14/11:00pm 20.4 15.6 9.0 48 6.0 SSW 24 32 13 17 1015.2 1015.1 0.0
14/10:30pm 22.0 17.9 -3.4 18 10.7 WNW 9 15 5 8 1014.8 1014.7 0.0
14/10:00pm 21.5 15.3 -3.1 19 10.4 WSW 20 28 11 15 1014.5 1014.4 0.0
14/09:30pm 21.9 16.3 -2.7 19 10.5 N 17 20 9 11 1013.6 1013.5 0.0
14/09:00pm 22.6 16.6 -2.9 18 10.9 NNE 19 28 10 15 1013.4 1013.2 0.0
14/08:30pm 23.6 17.4 -2.8 17 11.4 NNE 20 28 11 15 1013.3 1013.1 0.0
14/08:00pm 24.5 17.9 -2.9 16 11.9 NNE 22 28 12 15 1013.2 1013.0 0.0
14/07:30pm 25.2 19.1 -2.4 16 12.2 NNE 20 24 11 13 1013.3 1013.1 0.0
14/07:00pm 26.3 20.2 -2.4 15 12.8 N 20 24 11 13 1013.2 1013.0 0.0
14/06:30pm 27.1 21.1 -2.7 14 13.3 N 19 22 10 12 1013.3 1013.1 0.0
14/06:00pm 28.2 21.7 -2.8 13 14.0 N 22 32 12 17 1013.4 1013.2 0.0
14/05:30pm 29.1 22.1 -3.2 12 14.5 N 24 32 13 17 1013.2 1013.0 0.0
14/05:00pm 29.5 22.2 -2.9 12 14.7 N 26 37 14 20 1013.1 1012.9 0.0
14/04:30pm 29.8 22.4 -3.8 11 15.1 N 26 35 14 19 1013.3 1013.1 0.0
14/04:00pm 30.0 23.4 -3.6 11 15.1 N 22 32 12 17 1013.5 1013.4 0.0
14/03:30pm 30.2 23.2 -3.5 11 15.2 NNW 24 35 13 19 1013.8 1013.7 0.0
14/03:00pm 29.8 22.9 -2.6 12 14.8 N 24 41 13 22 1014.1 1014.0 0.0
14/02:30pm 29.7 22.8 -2.7 12 14.8 NNW 24 39 13 21 1014.8 1014.7 0.0
14/02:00pm 29.5 22.9 -2.9 12 14.7 NNW 22 30 12 16 1015.2 1015.1 0.0
14/01:30pm 29.1 22.3 -2.1 13 14.3 N 24 39 13 21 1015.7 1015.6 0.0
14/01:00pm 28.6 21.8 -1.5 14 13.9 N 24 35 13 19 1016.5 1016.3 0.0
14/12:30pm 27.8 21.1 -1.2 15 13.4 N 24 35 13 19 1017.1 1016.9 0.0
14/12:00pm 27.2 19.3 -1.7 15 13.1 NNW 30 37 16 20 1017.7 1017.5 0.0
14/11:30am 26.6 19.1 -1.3 16 12.7 N 28 39 15 21 1018.0 1017.8 0.0
14/11:00am 26.2 17.9 -1.6 16 12.6 N 32 39 17 21 1018.3 1018.1 0.0
14/10:30am 25.4 17.5 -1.4 17 12.1 N 30 41 16 22 1018.7 1018.5 0.0
14/10:00am 24.4 17.0 -0.7 19 11.4 N 28 39 15 21 1019.2 1019.0 0.0
14/09:30am 23.2 16.6 -0.3 21 10.6 N 24 32 13 17 1019.3 1019.1 0.0
14/09:00am 22.4 16.3 0.3 23 10.0 NNE 22 28 12 15 1019.3 1019.1 0.0
14/08:30am 19.9 14.2 0.4 27 8.7 NNE 20 26 11 14 1019.3 1019.1 0.0
14/08:00am 18.1 12.6 0.7 31 7.7 NNE 19 24 10 13 1019.2 1019.0 0.0
14/07:30am 16.3 12.0 0.8 35 6.8 NNE 13 20 7 11 1019.1 1018.9 0.0
14/07:00am 14.4 10.5 1.3 41 5.7 NE 11 15 6 8 1018.7 1018.5 0.0
14/06:30am 13.6 9.3 1.3 43 5.3 NE 13 15 7 8 1018.4 1018.2 0.0
14/06:00am 13.6 9.3 1.3 43 5.3 NE 13 15 7 8 1018.4 1018.2 0.0
14/05:30am 14.2 9.9 1.2 41 5.6 NE 13 17 7 9 1018.1 1017.9 0.0
14/05:00am 15.1 10.8 1.3 39 6.0 NE 13 17 7 9 1017.9 1017.7 0.0
14/04:30am 14.8 10.2 1.7 41 5.7 NE 15 19 8 10 1017.7 1017.5 0.0
14/04:00am 13.4 9.2 1.4 44 5.2 NE 13 17 7 9 1018.1 1017.9 0.0
14/03:30am 14.0 9.8 1.6 43 5.4 NE 13 15 7 8 1018.4 1018.2 0.0
14/03:00am 14.1 9.5 1.7 43 5.4 NE 15 17 8 9 1018.6 1018.4 0.0
14/02:30am 14.3 10.1 1.6 42 5.5 NE 13 13 7 7 1019.0 1018.8 0.0
14/02:00am 14.1 10.2 1.4 42 5.5 ENE 11 13 6 7 1019.4 1019.2 0.0
14/01:30am 13.6 9.7 1.3 43 5.3 NE 11 13 6 7 1019.8 1019.6 0.0
14/01:00am 13.5 9.8 0.2 40 5.6 NE 9 9 5 5 1020.0 1019.8 0.0
14/12:30am 15.1 11.1 0.2 36 6.3 NE 11 13 6 7 1020.2 1020.0 0.0
14/12:00am 16.0 12.0 0.6 35 6.7 NNE 11 13 6 7 1020.4 1020.2 0.0
 
Date/Time
CST
Temp
°C
App
Temp
°C
Dew
Point
Rel
Hum
%
Delta-T
°C
Wind Press
QNH
hPa
Press
MSL
hPa
Rain
since 9 am
mm
Dir
 
Spd
km/h
Gust
km/h
Spd
kts
Gust
kts
13/11:30pm 17.1 12.8 1.1 34 7.1 NNE 13 15 7 8 1020.5 1020.3 0.0
13/11:00pm 15.8 12.2 0.4 35 6.6 NNE 9 13 5 7 1020.6 1020.4 0.0
13/10:30pm 15.5 11.8 0.1 35 6.6 NNE 9 13 5 7 1020.8 1020.6 0.0
13/10:00pm 16.6 13.0 0.3 33 7.1 NE 9 13 5 7 1020.9 1020.7 0.0
13/09:30pm 17.2 13.6 0.8 33 7.2 NE 9 11 5 6 1021.0 1020.8 0.0

Other Formats:

Comma delimited format used in spreadsheet applications
http://www.bom.gov.au/fwo/IDS60801/IDS60801.95658.axf

JavaScript Object Notation format (JSON) in row-major order
http://www.bom.gov.au/fwo/IDS60801/IDS60801.95658.json